createdAt,value
2018-12-15T00:07:12.817Z,2.2
2018-12-15T00:22:21.389Z,2
2018-12-15T00:37:35.725Z,2
2018-12-15T00:52:47.208Z,2
2018-12-15T01:07:58.525Z,1.9
2018-12-15T01:23:09.991Z,1.8
2018-12-15T01:38:21.103Z,1.8
2018-12-15T01:53:32.138Z,1.6
2018-12-15T02:08:43.528Z,1.6
2018-12-15T02:23:54.622Z,1.6
2018-12-15T02:39:04.714Z,1.5
2018-12-15T02:54:16.939Z,1.5
2018-12-15T03:09:28.569Z,1.5
2018-12-15T03:24:39.806Z,1.3
2018-12-15T03:39:42.724Z,1.4
2018-12-15T03:55:01.982Z,1.4
2018-12-15T04:10:13.876Z,1.5
2018-12-15T04:25:24.831Z,1.4
2018-12-15T04:40:35.671Z,1.4
2018-12-15T04:55:46.348Z,1.5
2018-12-15T05:10:57.838Z,1.6
2018-12-15T05:26:08.933Z,1.7
2018-12-15T05:41:20.244Z,1.8
2018-12-15T05:56:25.147Z,1.7
2018-12-15T06:11:43.326Z,1.8
2018-12-15T06:26:54.034Z,1.7
2018-12-15T06:42:05.564Z,1.7
2018-12-15T06:57:16.651Z,1.7
2018-12-15T07:12:28.087Z,1.8
2018-12-15T07:27:39.215Z,1.8
2018-12-15T07:42:50.539Z,1.9
2018-12-15T07:58:01.964Z,1.9
2018-12-15T08:13:09.079Z,1.9
2018-12-15T08:28:24.730Z,1.8
2018-12-15T08:43:36.076Z,2
2018-12-15T08:58:47.405Z,2
2018-12-15T09:13:58.861Z,2.1
2018-12-15T09:29:10.228Z,2
2018-12-15T09:44:21.790Z,2
2018-12-15T09:59:33.129Z,2.2
2018-12-15T10:14:44.602Z,2.2
2018-12-15T10:29:54.536Z,2.2
2018-12-15T10:45:07.650Z,2
2018-12-15T11:00:19.111Z,2.2
2018-12-15T11:15:30.802Z,2
2018-12-15T11:30:34.284Z,2.3
2018-12-15T11:45:53.312Z,2.2
2018-12-15T12:01:05.129Z,2.1
2018-12-15T12:16:15.985Z,1.9
2018-12-15T12:31:27.657Z,1.9
2018-12-15T12:46:38.902Z,2
2018-12-15T13:01:50.788Z,2.1
2018-12-15T13:17:02.325Z,2.2
2018-12-15T13:32:13.239Z,2.3
2018-12-15T13:47:21.001Z,4.2
2018-12-15T14:02:37.108Z,3.2
2018-12-15T14:17:49.447Z,2.7
2018-12-15T14:33:00.220Z,2.5
2018-12-15T14:48:11.752Z,2.4
2018-12-15T15:03:23.738Z,2.3
2018-12-15T15:18:34.648Z,2.3
2018-12-15T15:33:46.167Z,2.3
2018-12-15T15:48:57.755Z,2
2018-12-15T16:04:08.153Z,2.1
2018-12-15T16:19:20.687Z,2.1
2018-12-15T16:34:31.974Z,2.1
2018-12-15T16:49:43.609Z,2.3
2018-12-15T17:04:48.478Z,2.2
2018-12-15T17:20:06.332Z,2.1
2018-12-15T17:35:17.715Z,2.2
2018-12-15T17:50:29.193Z,2.1
2018-12-15T18:05:40.767Z,2.1
2018-12-15T18:20:52.016Z,2
2018-12-15T18:36:03.487Z,2.2
2018-12-15T18:51:16.426Z,2.1
2018-12-15T19:06:26.830Z,2.1
2018-12-15T19:21:36.711Z,2.2
2018-12-15T19:36:49.320Z,2.2
2018-12-15T19:52:00.745Z,2
2018-12-15T20:07:52.511Z,1.8
2018-12-15T20:23:17.828Z,3.1
2018-12-15T20:38:43.113Z,3.2
2018-12-15T20:54:08.658Z,4.5
2018-12-15T21:09:34.802Z,5.1
2018-12-15T21:25:00.732Z,5.5
2018-12-15T21:40:26.894Z,5.3
2018-12-15T21:55:53.169Z,5.4
2018-12-15T22:11:18.949Z,5.6
2018-12-15T22:26:45.318Z,5.9
2018-12-15T22:42:11.252Z,5.5
2018-12-15T22:57:37.215Z,5.5
2018-12-15T23:13:03.375Z,5.4
2018-12-15T23:28:29.777Z,5.2
2018-12-15T23:43:55.512Z,5.3
2018-12-15T23:59:21.314Z,5.1
